KOLE/OLE METAR and TAF weather

Enter ICAO airport designator
Station Type Date Time Source
KOLE METAR 2021/06/24 05:15 UTC NOAA

KOLE 240515Z AUTO 20003KT 10SM CLR 12/06 A3029 RMK AO2


Station Type Date Time Source
KOLE Decoded METAR 2021/06/24 05:15 UTC NOAA

Olean Municipal, NY, United States (KOLE) 42-14N 078-22W
Jun 24, 2021 - 01:15 AM EDT / 2021.06.24 0515 UTC
Wind: from the SSW (200 degrees) at 3 MPH (3 KT):0
Visibility: 10 mile(s):0
Sky conditions: clear
Temperature: 53 F (12 C)
Dew Point: 42 F (6 C)
Relative Humidity: 66%
Pressure (altimeter): 30.29 in. Hg (1025 hPa)
ob: KOLE 240515Z AUTO 20003KT 10SM CLR 12/06 A3029 RMK AO2
cycle: 5

Station Type Date Time Source
KOLE TAF UTC NOAA

Error!

Example: see airport list